createdAt,value
2018-09-29T00:04:58.293Z,2.80
2018-09-29T00:10:01.497Z,2.13
2018-09-29T00:15:05.943Z,1.77
2018-09-29T00:20:09.695Z,1.90
2018-09-29T00:25:12.909Z,1.50
2018-09-29T00:30:15.990Z,1.97
2018-09-29T00:35:19.136Z,1.83
2018-09-29T00:40:22.280Z,1.77
2018-09-29T00:45:25.428Z,1.50
2018-09-29T00:50:28.604Z,2.20
2018-09-29T00:55:31.773Z,1.97
2018-09-29T01:00:34.927Z,1.50
2018-09-29T01:05:38.061Z,2.17
2018-09-29T01:10:41.180Z,2.07
2018-09-29T01:15:44.311Z,2.03
2018-09-29T01:20:47.551Z,2.17
2018-09-29T01:25:50.626Z,2.13
2018-09-29T01:30:53.795Z,2.30
2018-09-29T01:35:56.919Z,2.10
2018-09-29T01:41:00.066Z,1.60
2018-09-29T01:46:03.189Z,1.87
2018-09-29T01:51:06.471Z,2.27
2018-09-29T01:56:09.642Z,2.80
2018-09-29T02:01:12.718Z,2.00
2018-09-29T02:06:15.929Z,1.70
2018-09-29T02:11:19.028Z,2.23
2018-09-29T02:16:22.211Z,2.10
2018-09-29T02:21:25.389Z,2.60
2018-09-29T02:26:28.472Z,3.20
2018-09-29T02:31:31.636Z,2.20
2018-09-29T02:36:34.767Z,1.63
2018-09-29T02:41:38.033Z,2.13
2018-09-29T02:46:41.175Z,1.60
2018-09-29T02:51:44.261Z,1.97
2018-09-29T02:56:47.418Z,2.03
2018-09-29T03:01:50.596Z,2.90
2018-09-29T03:06:53.807Z,1.67
2018-09-29T03:11:56.906Z,1.73
2018-09-29T03:17:00.183Z,2.63
2018-09-29T03:22:03.349Z,2.20
2018-09-29T03:27:06.600Z,1.80
2018-09-29T03:32:09.843Z,1.70
2018-09-29T03:37:12.927Z,1.60
2018-09-29T03:42:16.054Z,1.90
2018-09-29T03:47:19.205Z,2.23
2018-09-29T03:52:22.403Z,1.90
2018-09-29T03:57:25.520Z,2.37
2018-09-29T04:02:28.676Z,2.90
2018-09-29T04:07:32.033Z,2.10
2018-09-29T04:12:35.172Z,3.15
2018-09-29T04:17:38.277Z,3.07
2018-09-29T04:22:41.436Z,2.30
2018-09-29T04:27:44.562Z,2.17
2018-09-29T04:32:47.688Z,2.70
2018-09-29T04:37:50.815Z,1.63
2018-09-29T04:42:53.949Z,2.67
2018-09-29T04:47:57.133Z,1.80
2018-09-29T04:53:00.241Z,2.23
2018-09-29T04:58:03.410Z,2.00
2018-09-29T05:03:06.669Z,2.27
2018-09-29T05:08:09.799Z,2.42
2018-09-29T05:13:12.931Z,2.23
2018-09-29T05:18:16.215Z,1.73
2018-09-29T05:23:19.397Z,2.57
2018-09-29T05:28:22.548Z,2.03
2018-09-29T05:33:25.673Z,2.10
2018-09-29T05:38:28.813Z,2.33
2018-09-29T05:43:31.911Z,1.73
2018-09-29T05:48:35.200Z,1.83
2018-09-29T05:53:38.316Z,2.00
2018-09-29T05:58:41.477Z,2.27
2018-09-29T06:03:44.539Z,2.20
2018-09-29T06:08:47.716Z,2.77
2018-09-29T06:13:50.939Z,2.70
2018-09-29T06:18:54.192Z,2.10
2018-09-29T06:23:57.389Z,1.77
2018-09-29T06:29:00.520Z,2.07
2018-09-29T06:34:03.737Z,1.80
2018-09-29T06:39:08.150Z,2.43
2018-09-29T06:44:11.421Z,2.13
2018-09-29T06:49:14.550Z,2.20
2018-09-29T06:54:17.714Z,1.90
2018-09-29T06:59:21.120Z,3.27
2018-09-29T07:04:24.249Z,2.23
2018-09-29T07:09:27.413Z,2.47
2018-09-29T07:14:30.565Z,2.17
2018-09-29T07:19:34.008Z,2.27
2018-09-29T07:24:37.140Z,3.17
2018-09-29T07:29:40.530Z,1.70
2018-09-29T07:34:43.695Z,2.80
2018-09-29T07:39:46.846Z,2.20
2018-09-29T07:44:49.965Z,1.40
2018-09-29T07:49:53.140Z,2.40
2018-09-29T07:54:56.412Z,2.20
2018-09-29T07:59:59.433Z,2.33
2018-09-29T08:05:02.611Z,1.93
2018-09-29T08:10:05.721Z,1.80
2018-09-29T08:15:08.873Z,2.10
2018-09-29T08:20:12.031Z,2.43
2018-09-29T08:25:15.182Z,2.10
2018-09-29T08:30:18.381Z,2.73
2018-09-29T08:35:21.545Z,2.03
2018-09-29T08:40:24.605Z,2.10
2018-09-29T08:45:27.771Z,2.10
2018-09-29T08:50:30.996Z,1.93
2018-09-29T08:55:34.127Z,2.40
2018-09-29T09:00:37.453Z,2.37
2018-09-29T09:05:40.605Z,2.10
2018-09-29T09:10:43.736Z,1.97
2018-09-29T09:15:46.876Z,2.53
2018-09-29T09:20:50.019Z,3.00
2018-09-29T09:25:53.244Z,3.20
2018-09-29T09:30:56.398Z,3.00
2018-09-29T09:35:59.567Z,2.90
2018-09-29T09:41:02.669Z,2.83
2018-09-29T09:46:05.845Z,2.50
2018-09-29T09:51:09.150Z,2.33
2018-09-29T09:56:12.475Z,2.75
2018-09-29T10:01:35.021Z,3.13
2018-09-29T10:06:38.149Z,2.90
2018-09-29T10:11:41.790Z,2.08
2018-09-29T10:16:44.949Z,2.60
2018-09-29T10:21:48.098Z,2.33
2018-09-29T10:26:51.437Z,2.45
2018-09-29T10:31:54.552Z,2.70
2018-09-29T10:36:57.725Z,2.35
2018-09-29T10:42:00.917Z,2.52
2018-09-29T10:47:04.086Z,2.12
2018-09-29T10:52:07.266Z,2.02
2018-09-29T10:57:10.371Z,2.10
2018-09-29T11:02:13.715Z,2.42
2018-09-29T11:07:17.099Z,2.40
2018-09-29T11:12:20.187Z,2.35
2018-09-29T11:17:23.347Z,1.95
2018-09-29T11:22:26.496Z,2.08
2018-09-29T11:27:29.613Z,2.58
2018-09-29T11:32:32.780Z,1.65
2018-09-29T11:37:36.001Z,2.20
2018-09-29T11:42:39.169Z,2.33
2018-09-29T11:47:42.278Z,2.10
2018-09-29T11:52:45.454Z,2.05
2018-09-29T11:57:48.625Z,1.65
2018-09-29T12:02:51.749Z,1.75
2018-09-29T12:07:54.929Z,1.67
2018-09-29T12:12:57.996Z,1.47
2018-09-29T12:18:01.150Z,1.50
2018-09-29T12:23:04.288Z,1.90
2018-09-29T12:28:07.435Z,1.80
2018-09-29T12:33:10.545Z,2.25
2018-09-29T12:38:13.659Z,2.35
2018-09-29T12:43:16.793Z,2.50
2018-09-29T12:48:20.000Z,1.50
2018-09-29T12:53:23.105Z,1.87
2018-09-29T12:58:26.209Z,1.95
2018-09-29T13:03:29.362Z,2.05
2018-09-29T13:08:32.509Z,1.67
2018-09-29T13:13:35.673Z,1.75
2018-09-29T13:18:38.830Z,1.72
2018-09-29T13:23:41.936Z,2.17
2018-09-29T13:28:45.153Z,1.70
2018-09-29T13:33:48.268Z,2.30
2018-09-29T13:38:51.389Z,1.40
2018-09-29T13:43:54.574Z,1.63
2018-09-29T13:48:57.764Z,1.77
2018-09-29T13:54:00.916Z,1.93
2018-09-29T13:59:04.900Z,1.43
2018-09-29T14:04:08.053Z,1.92
2018-09-29T14:09:11.381Z,1.77
2018-09-29T14:14:14.535Z,1.90
2018-09-29T14:19:17.604Z,1.20
2018-09-29T14:24:20.749Z,1.30
2018-09-29T14:29:23.877Z,1.90
2018-09-29T14:34:27.018Z,2.10
2018-09-29T14:39:30.260Z,2.10
2018-09-29T14:44:33.364Z,1.63
2018-09-29T14:49:36.482Z,1.40
2018-09-29T14:54:40.596Z,2.30
2018-09-29T14:59:43.744Z,1.47
2018-09-29T15:04:46.912Z,2.00
2018-09-29T15:09:50.038Z,1.30
2018-09-29T15:14:53.178Z,1.70
2018-09-29T15:19:56.333Z,1.53
2018-09-29T15:24:59.513Z,1.70
2018-09-29T15:30:02.695Z,1.07
2018-09-29T15:35:05.953Z,1.67
2018-09-29T15:40:09.082Z,1.70
2018-09-29T15:45:12.244Z,1.93
2018-09-29T15:50:15.426Z,1.43
2018-09-29T15:55:18.744Z,2.43
2018-09-29T16:00:21.780Z,1.73
2018-09-29T16:05:24.900Z,1.60
2018-09-29T16:10:28.088Z,1.00
2018-09-29T16:15:31.291Z,1.63
2018-09-29T16:20:34.395Z,1.65
2018-09-29T16:25:37.641Z,1.57
2018-09-29T16:30:40.799Z,1.77
2018-09-29T16:35:46.566Z,1.63
2018-09-29T16:40:49.731Z,1.30
2018-09-29T16:45:52.872Z,1.47
2018-09-29T16:50:56.042Z,1.77
2018-09-29T16:55:59.195Z,2.12
2018-09-29T17:01:02.348Z,1.40
2018-09-29T17:06:05.585Z,1.57
2018-09-29T17:11:08.765Z,1.80
2018-09-29T17:16:12.028Z,1.60
2018-09-29T17:21:15.305Z,2.23
2018-09-29T17:26:18.532Z,1.90
2018-09-29T17:31:21.647Z,2.07
2018-09-29T17:36:24.785Z,1.53
2018-09-29T17:41:27.949Z,4.03
2018-09-29T17:46:31.084Z,2.30
2018-09-29T17:51:34.227Z,2.60
2018-09-29T17:56:37.348Z,2.60
2018-09-29T18:01:40.546Z,3.20
2018-09-29T18:06:43.730Z,3.60
2018-09-29T18:11:46.896Z,3.47
2018-09-29T18:16:50.015Z,2.93
2018-09-29T18:21:53.183Z,3.40
2018-09-29T18:26:56.225Z,4.20
2018-09-29T18:31:59.379Z,3.83
2018-09-29T18:37:02.545Z,3.50
2018-09-29T18:42:05.715Z,3.73
2018-09-29T18:47:10.069Z,5.30
2018-09-29T18:52:13.232Z,6.83
2018-09-29T18:57:16.313Z,6.80
2018-09-29T19:02:19.470Z,4.13
2018-09-29T19:07:22.632Z,3.83
2018-09-29T19:12:25.774Z,3.13
2018-09-29T19:17:28.928Z,2.70
2018-09-29T19:22:32.193Z,3.00
2018-09-29T19:27:35.358Z,2.93
2018-09-29T19:32:38.555Z,6.63
2018-09-29T19:37:41.688Z,4.00
2018-09-29T19:42:44.850Z,4.67
2018-09-29T19:47:47.997Z,5.33
2018-09-29T19:52:51.154Z,4.47
2018-09-29T19:57:54.354Z,4.97
2018-09-29T20:02:57.562Z,3.97
2018-09-29T20:08:00.688Z,5.12
2018-09-29T20:13:03.817Z,3.90
2018-09-29T20:18:07.344Z,2.97
2018-09-29T20:23:10.541Z,6.87
2018-09-29T20:28:13.690Z,5.43
2018-09-29T20:33:16.859Z,5.83
2018-09-29T20:38:19.989Z,3.77
2018-09-29T20:43:23.297Z,2.93
2018-09-29T20:48:26.720Z,3.25
2018-09-29T20:53:29.890Z,2.57
2018-09-29T20:58:33.167Z,2.90
2018-09-29T21:03:36.331Z,2.40
2018-09-29T21:08:39.521Z,1.93
2018-09-29T21:13:42.757Z,2.23
2018-09-29T21:18:45.839Z,2.10
2018-09-29T21:23:48.994Z,2.70
2018-09-29T21:28:52.178Z,3.00
2018-09-29T21:33:55.335Z,2.30
2018-09-29T21:38:58.471Z,3.00
2018-09-29T21:44:01.640Z,3.50
2018-09-29T21:49:05.178Z,3.63
2018-09-29T21:54:08.313Z,4.00
2018-09-29T21:59:11.454Z,4.90
2018-09-29T22:04:14.646Z,4.80
2018-09-29T22:09:24.069Z,4.30
2018-09-29T22:14:27.237Z,3.87
2018-09-29T22:19:30.395Z,5.42
2018-09-29T22:24:33.772Z,3.87
2018-09-29T22:29:36.824Z,3.72
2018-09-29T22:34:39.924Z,3.43
2018-09-29T22:39:43.112Z,2.70
2018-09-29T22:44:46.229Z,3.10
2018-09-29T22:49:49.411Z,3.63
2018-09-29T22:54:52.801Z,4.20
2018-09-29T22:59:55.945Z,3.07
2018-09-29T23:04:59.150Z,2.93
2018-09-29T23:10:02.291Z,2.97
2018-09-29T23:15:05.496Z,4.40
2018-09-29T23:20:08.643Z,3.53
2018-09-29T23:25:11.747Z,3.77
2018-09-29T23:30:14.875Z,3.13
2018-09-29T23:35:18.054Z,3.90
2018-09-29T23:40:21.236Z,3.80
2018-09-29T23:45:24.337Z,3.50
2018-09-29T23:50:27.467Z,3.07
2018-09-29T23:55:30.608Z,4.97
